Terminal Aerodrome Forecast
Issued by NWS

Home | Current Version | Previous Version | Graphics & Text | Print | Product List | Glossary On
Versions: 1 2 3 4 5 6 7 8 9 10 11 12 13 14 15 16 17 18 19 20 21
000
FTUS41 KCLE 222125 AAA
TAFFDY
TAF AMD
KFDY 222125Z 2221/2318 20010KT P6SM OVC020
     FM230300 20009KT 6SM BR OVC020
     FM230800 20010KT 3SM BR OVC009
     FM231600 24010KT P6SM OVC015=

USA.gov is the U.S. government's official web portal to all federal, state and local government web resources and services.